Time;durP1;ratioP1;P1;durP2;ratioP2;P2;SDS_P1;SDS_P2;PMS_P1;PMS_P2;Temp;Humidity;BMP_temperature;BMP_pressure;BME280_temperature;BME280_humidity;BME280_pressure;Samples;Min_cycle;Max_cycle;Signal;HPM_P1;HPM_P2
2022/01/26 00:07:57;;;;;;;53.83;19.00;;;-1.70;99.90;;;;;;4958577;29;20031;-86
2022/01/26 00:10:23;;;;;;;375.75;31.80;;;-1.60;99.90;;;;;;4958192;29;20027;-87
2022/01/26 00:12:49;;;;;;;78.40;19.85;;;-1.70;99.90;;;;;;4926292;29;20035;-86
2022/01/26 00:15:15;;;;;;;139.60;20.65;;;-1.70;99.90;;;;;;4974145;28;20390;-86
2022/01/26 00:17:41;;;;;;;194.32;24.88;;;-1.70;99.90;;;;;;4926344;29;20035;-87
2022/01/26 00:38:45;;;;;;;188.55;21.67;;;-1.80;99.90;;;;;;4957645;29;20086;-86
2022/01/26 00:41:16;;;;;;;107.40;19.58;;;-1.80;99.90;;;;;;4925576;29;20031;-86
2022/01/26 00:43:50;;;;;;;167.55;25.95;;;-1.80;99.90;;;;;;4973517;28;20043;-86
2022/01/26 00:46:17;;;;;;;469.40;31.85;;;-1.70;99.90;;;;;;4925535;29;20130;-86
2022/01/26 00:48:43;;;;;;;174.10;21.48;;;-1.80;99.90;;;;;;4940966;29;20039;-86
2022/01/26 00:51:14;;;;;;;52.67;18.33;;;-1.80;99.90;;;;;;4924969;29;20027;-87
2022/01/26 00:53:51;;;;;;;598.53;40.17;;;-1.70;99.90;;;;;;4925011;29;20031;-86
2022/01/26 00:56:18;;;;;;;125.50;21.25;;;-1.80;99.90;;;;;;4925146;29;20039;-87
2022/01/26 00:58:46;;;;;;;213.77;22.33;;;-1.80;99.90;;;;;;4973369;28;20390;-86
2022/01/26 01:01:12;;;;;;;163.90;21.92;;;-1.90;99.90;;;;;;4925355;29;20043;-86
2022/01/26 01:03:42;;;;;;;70.95;18.05;;;-1.90;99.90;;;;;;4940813;29;20027;-87
2022/01/26 01:06:20;;;;;;;187.13;22.85;;;-1.80;99.90;;;;;;4957300;29;20086;-87
2022/01/26 01:08:47;;;;;;;231.10;27.13;;;-1.80;99.90;;;;;;4957390;29;20034;-87
2022/01/26 01:11:13;;;;;;;487.80;34.55;;;-1.80;99.90;;;;;;4957084;28;20095;-86
2022/01/26 01:13:41;;;;;;;235.55;23.27;;;-1.80;99.90;;;;;;4941175;29;20032;-86
2022/01/26 01:16:09;;;;;;;153.98;22.30;;;-1.80;99.90;;;;;;4973150;28;20035;-86
2022/01/26 01:29:07;;;;;;;115.40;18.73;;;-1.90;99.90;;;;;;4972087;28;20118;-86
2022/01/26 01:31:49;;;;;;;191.40;21.10;;;-2.10;99.90;;;;;;4940765;29;20099;-86
2022/01/26 01:34:36;;;;;;;301.15;27.92;;;-2.00;99.90;;;;;;4924606;29;20058;-85
2022/01/26 01:37:07;;;;;;;249.27;22.63;;;-1.90;99.90;;;;;;4924773;29;20090;-87
2022/01/26 01:39:35;;;;;;;62.15;16.40;;;-2.00;99.90;;;;;;4940336;29;20130;-86
2022/01/26 01:42:02;;;;;;;78.30;19.48;;;-1.90;99.90;;;;;;4924425;29;20039;-86
2022/01/26 01:44:28;;;;;;;211.00;22.58;;;-1.90;99.90;;;;;;4940657;29;20035;-86
2022/01/26 01:46:55;;;;;;;238.73;22.42;;;-1.80;99.90;;;;;;4925233;29;20036;-86
2022/01/26 01:49:22;;;;;;;242.90;24.52;;;-1.90;99.90;;;;;;4924409;29;20371;-86
2022/01/26 01:51:52;;;;;;;528.78;35.70;;;-1.90;99.90;;;;;;4924040;29;20038;-85
2022/01/26 01:54:19;;;;;;;668.80;40.33;;;-2.00;99.90;;;;;;4924273;29;20027;-86
2022/01/26 01:56:57;;;;;;;210.85;23.48;;;-2.00;99.90;;;;;;4924197;29;20067;-86
2022/01/26 01:59:25;;;;;;;281.48;24.00;;;-2.00;99.90;;;;;;4939912;29;20110;-87
2022/01/26 02:01:51;;;;;;;284.75;24.60;;;-2.00;99.90;;;;;;4924317;29;20134;-86
2022/01/26 02:04:17;;;;;;;140.00;20.90;;;-2.00;99.90;;;;;;4924340;29;20086;-86
2022/01/26 02:06:43;;;;;;;491.17;37.05;;;-2.00;99.90;;;;;;4956007;29;20074;-86
2022/01/26 02:09:10;;;;;;;621.85;43.00;;;-2.00;99.90;;;;;;4924418;29;20043;-86
2022/01/26 02:11:47;;;;;;;583.95;42.58;;;-2.00;99.90;;;;;;4940055;29;20505;-86
2022/01/26 02:14:19;;;;;;;632.22;44.17;;;-2.00;99.90;;;;;;4940233;29;20027;-86
2022/01/26 02:20:06;;;;;;;217.82;23.20;;;-2.00;99.90;;;;;;4957157;29;20031;-86
2022/01/26 02:55:43;;;;;;;456.10;46.40;;;-1.90;99.90;;;;;;4975417;28;20043;-86
2022/01/26 03:03:51;;;;;;;173.43;20.42;;;-1.90;99.90;;;;;;4975147;28;20054;-86
2022/01/26 03:06:24;;;;;;;232.10;22.00;;;-1.90;99.90;;;;;;4926749;29;20039;-86
2022/01/26 03:08:57;;;;;;;81.47;16.45;;;-1.80;99.90;;;;;;4927094;29;20031;-86
2022/01/26 03:11:27;;;;;;;120.93;21.48;;;-1.80;99.90;;;;;;4927069;29;20038;-87
2022/01/26 03:14:00;;;;;;;387.02;28.98;;;-1.80;99.90;;;;;;4926899;29;20032;-86
2022/01/26 03:16:51;;;;;;;270.70;26.00;;;-1.70;99.90;;;;;;4926886;29;20034;-86
2022/01/26 03:22:04;;;;;;;412.80;29.70;;;-1.80;99.90;;;;;;4974323;28;20030;-86
2022/01/26 03:30:28;;;;;;;138.40;19.67;;;-1.70;99.90;;;;;;4974784;28;20035;-87
2022/01/26 03:39:09;;;;;;;171.43;21.17;;;-1.70;99.90;;;;;;4960403;29;20086;-86
2022/01/26 03:44:03;;;;;;;90.70;17.75;;;-1.70;99.90;;;;;;4974472;28;20031;-86
2022/01/26 03:46:29;;;;;;;449.17;31.83;;;-1.70;99.90;;;;;;4926669;29;20505;-86
2022/01/26 03:48:56;;;;;;;530.50;35.10;;;-1.70;99.90;;;;;;4926297;29;20497;-86
2022/01/26 03:51:21;;;;;;;298.83;29.27;;;-1.80;99.90;;;;;;4942265;29;20024;-86
2022/01/26 03:53:47;;;;;;;493.50;39.45;;;-1.80;99.90;;;;;;4958456;29;20032;-86
2022/01/26 03:56:13;;;;;;;113.28;18.10;;;-1.80;99.90;;;;;;4958786;29;20398;-86
2022/01/26 03:58:38;;;;;;;284.73;25.40;;;-1.70;99.90;;;;;;4926419;29;20027;-87
2022/01/26 04:01:04;;;;;;;400.48;30.70;;;-1.70;99.90;;;;;;4973512;28;20066;-85
2022/01/26 04:03:30;;;;;;;207.00;22.67;;;-1.70;99.90;;;;;;4941740;29;20035;-85
2022/01/26 04:05:56;;;;;;;536.20;37.60;;;-1.70;99.90;;;;;;4925988;29;20494;-86
2022/01/26 04:08:33;;;;;;;368.17;29.67;;;-1.70;99.90;;;;;;4957587;28;20375;-84
2022/01/26 04:13:24;;;;;;;503.92;35.17;;;-1.80;99.90;;;;;;4958195;29;20042;-86
2022/01/26 04:15:51;;;;;;;605.20;41.58;;;-1.80;99.90;;;;;;4941124;29;20071;-85
2022/01/26 04:18:22;;;;;;;340.35;30.17;;;-1.80;99.90;;;;;;4957747;29;20031;-86
2022/01/26 04:20:51;;;;;;;317.90;27.17;;;-1.80;99.90;;;;;;4941768;29;20071;-86
2022/01/26 04:25:50;;;;;;;549.65;36.00;;;-1.80;99.90;;;;;;4973339;28;20070;-86
2022/01/26 04:28:22;;;;;;;196.23;25.00;;;-1.90;99.90;;;;;;4958396;29;20486;-85
2022/01/26 04:30:48;;;;;;;556.10;37.05;;;-1.80;99.90;;;;;;4956809;29;20046;-85
2022/01/26 04:33:14;;;;;;;508.92;34.05;;;-1.70;99.90;;;;;;4924974;29;20055;-85
2022/01/26 04:35:43;;;;;;;79.95;18.50;;;-1.70;99.90;;;;;;4940905;29;20051;-86
2022/01/26 04:40:42;;;;;;;512.58;40.25;;;-1.70;99.90;;;;;;4973500;28;20090;-85
2022/01/26 04:43:25;;;;;;;256.58;27.83;;;-1.80;99.90;;;;;;4957422;29;20038;-86
2022/01/26 04:45:51;;;;;;;620.25;41.60;;;-1.70;99.90;;;;;;4925478;29;20572;-85
2022/01/26 04:48:18;;;;;;;577.30;42.78;;;-1.80;99.90;;;;;;4924853;29;20035;-86
2022/01/26 04:50:44;;;;;;;630.03;49.45;;;-1.80;99.90;;;;;;4957138;29;20041;-86
2022/01/26 04:53:10;;;;;;;198.52;27.05;;;-1.80;99.90;;;;;;4972932;28;20035;-86
2022/01/26 04:55:36;;;;;;;229.45;25.67;;;-1.70;99.90;;;;;;4925268;29;20034;-86
2022/01/26 04:58:02;;;;;;;690.08;47.35;;;-1.70;99.90;;;;;;4925323;29;20031;-86
2022/01/26 05:00:28;;;;;;;89.97;20.23;;;-1.80;99.90;;;;;;4925584;29;20031;-85
2022/01/26 05:02:53;;;;;;;263.40;28.75;;;-1.80;99.90;;;;;;4925061;29;20122;-86
2022/01/26 05:05:23;;;;;;;188.93;25.48;;;-1.80;99.90;;;;;;4924770;29;20035;-86
2022/01/26 05:07:48;;;;;;;654.65;45.17;;;-1.70;99.90;;;;;;4924603;29;20129;-85
2022/01/26 05:10:14;;;;;;;567.47;38.35;;;-1.70;99.90;;;;;;4924793;29;20069;-85
2022/01/26 05:12:40;;;;;;;338.98;30.33;;;-1.80;99.90;;;;;;4923394;29;20027;-86
2022/01/26 05:15:06;;;;;;;614.45;52.15;;;-1.80;99.90;;;;;;4924005;29;20073;-86
2022/01/26 05:17:32;;;;;;;265.65;29.85;;;-1.80;99.90;;;;;;4924858;29;20039;-86
2022/01/26 05:20:00;;;;;;;286.02;31.05;;;-1.80;99.90;;;;;;4955999;29;20102;-85
2022/01/26 05:22:26;;;;;;;410.45;34.97;;;-1.70;99.90;;;;;;4940589;29;20042;-85
2022/01/26 05:24:53;;;;;;;711.35;54.53;;;-1.80;99.90;;;;;;4956079;29;20027;-85
2022/01/26 05:27:19;;;;;;;701.25;49.05;;;-1.80;99.90;;;;;;4956343;28;20039;-86
2022/01/26 05:29:45;;;;;;;757.92;61.42;;;-1.80;99.90;;;;;;4923952;29;20035;-86
2022/01/26 05:32:11;;;;;;;662.42;50.35;;;-1.80;99.90;;;;;;4924361;29;20038;-86
2022/01/26 05:34:37;;;;;;;362.35;37.05;;;-1.90;99.90;;;;;;4955423;28;20472;-85
2022/01/26 05:37:02;;;;;;;298.00;30.25;;;-1.90;99.90;;;;;;4924336;29;20034;-85
2022/01/26 05:39:28;;;;;;;354.95;33.17;;;-1.90;99.90;;;;;;4924331;29;20434;-85
2022/01/26 05:41:54;;;;;;;883.17;55.22;;;-1.80;99.90;;;;;;4924569;29;20027;-87
2022/01/26 05:44:20;;;;;;;114.88;24.10;;;-1.80;99.90;;;;;;4924722;29;20067;-85
2022/01/26 05:46:48;;;;;;;291.35;69.40;;;-1.80;99.90;;;;;;4925278;29;20031;-87
2022/01/26 05:49:17;;;;;;;906.72;65.40;;;-1.70;99.90;;;;;;4924041;29;20034;-88
2022/01/26 05:51:47;;;;;;;987.17;69.40;;;-1.80;99.90;;;;;;4957357;29;20032;-87
2022/01/26 05:54:16;;;;;;;651.08;49.08;;;-1.80;99.90;;;;;;4924066;29;20394;-87
2022/01/26 05:56:42;;;;;;;925.75;65.28;;;-1.80;99.90;;;;;;4923911;29;20027;-87
2022/01/26 05:59:09;;;;;;;499.42;40.97;;;-1.80;99.90;;;;;;4955890;29;20043;-85
2022/01/26 06:01:35;;;;;;;398.55;37.38;;;-1.80;99.90;;;;;;4924003;29;20031;-87
2022/01/26 06:04:01;;;;;;;801.65;56.88;;;-1.80;99.90;;;;;;4955344;29;20055;-86
2022/01/26 06:06:27;;;;;;;467.95;39.95;;;-1.70;99.90;;;;;;4957197;29;20067;-86
2022/01/26 06:08:53;;;;;;;357.27;36.08;;;-1.70;99.90;;;;;;4955863;29;20039;-85
2022/01/26 06:11:19;;;;;;;396.60;40.50;;;-1.70;99.90;;;;;;4924144;29;20035;-84
2022/01/26 06:13:45;;;;;;;730.05;57.65;;;-1.70;99.90;;;;;;4939882;29;20478;-86
2022/01/26 06:16:11;;;;;;;538.75;39.40;;;-1.70;99.90;;;;;;4940247;29;20082;-86
2022/01/26 06:18:56;;;;;;;487.50;42.00;;;-1.80;99.90;;;;;;4923674;29;20032;-87
2022/01/26 06:21:22;;;;;;;630.67;50.03;;;-1.80;99.90;;;;;;4923654;29;20564;-87
2022/01/26 06:23:48;;;;;;;275.30;28.75;;;-1.80;99.90;;;;;;4939668;28;20121;-87
2022/01/26 06:26:14;;;;;;;236.85;30.15;;;-1.80;99.90;;;;;;4976271;28;20035;-87
2022/01/26 06:28:40;;;;;;;341.17;37.53;;;-1.80;99.90;;;;;;4927719;29;20043;-87
2022/01/26 06:31:14;;;;;;;459.25;46.92;;;-1.70;99.90;;;;;;4927529;29;20038;-87
2022/01/26 06:33:42;;;;;;;353.15;38.30;;;-1.70;99.90;;;;;;4927565;29;20073;-87
2022/01/26 06:36:12;;;;;;;719.00;57.50;;;-1.70;99.90;;;;;;4960276;29;20023;-87
2022/01/26 06:38:46;;;;;;;1297.80;96.53;;;-1.80;99.90;;;;;;4927631;29;20034;-87
2022/01/26 06:41:13;;;;;;;1522.07;113.38;;;-1.80;99.90;;;;;;4959382;28;20036;-87
2022/01/26 06:43:48;;;;;;;599.45;58.47;;;-1.90;99.90;;;;;;4943055;29;20016;-86
2022/01/26 06:46:22;;;;;;;472.70;42.00;;;-1.90;99.90;;;;;;4927676;29;20031;-87
2022/01/26 06:49:28;;;;;;;740.78;57.22;;;-1.90;99.90;;;;;;4958990;29;20047;-86
2022/01/26 06:51:45;;;;;;;859.40;66.35;;;-1.80;99.90;;;;;;4942882;29;20126;-87
2022/01/26 06:54:11;;;;;;;461.15;40.65;;;-1.80;99.90;;;;;;4927265;29;20110;-87
2022/01/26 06:56:37;;;;;;;480.33;45.33;;;-1.90;99.90;;;;;;4927620;29;20023;-87
2022/01/26 06:59:02;;;;;;;459.63;44.65;;;-1.90;99.90;;;;;;4942987;29;20207;-87
2022/01/26 07:01:28;;;;;;;756.03;62.50;;;-1.90;99.90;;;;;;4943119;29;20378;-86
2022/01/26 07:03:54;;;;;;;1160.85;82.57;;;-1.90;99.90;;;;;;4927153;29;20039;-87
2022/01/26 07:06:20;;;;;;;1015.30;81.30;;;-1.90;99.90;;;;;;4927073;29;20074;-86
2022/01/26 07:08:46;;;;;;;712.28;52.70;;;-2.00;99.90;;;;;;4942737;29;20039;-87
2022/01/26 07:11:12;;;;;;;342.77;39.67;;;-2.00;99.90;;;;;;4927105;29;20031;-86
2022/01/26 07:13:39;;;;;;;466.30;44.97;;;-2.10;99.90;;;;;;4926652;29;20398;-86
2022/01/26 07:21:35;;;;;;;737.25;55.90;;;-1.90;99.90;;;;;;4958833;29;20038;-86
2022/01/26 07:24:00;;;;;;;1157.75;79.22;;;-1.90;99.90;;;;;;4941998;29;20035;-86
2022/01/26 07:26:29;;;;;;;542.40;46.70;;;-2.00;99.90;;;;;;4942450;29;20042;-87
2022/01/26 07:29:00;;;;;;;765.80;57.25;;;-2.00;99.90;;;;;;4926505;29;20035;-87
2022/01/26 07:31:26;;;;;;;1285.55;91.75;;;-2.00;99.90;;;;;;4926627;29;20035;-86
2022/01/26 07:33:54;;;;;;;942.53;65.22;;;-2.10;99.90;;;;;;4926623;29;20704;-88
2022/01/26 07:36:22;;;;;;;923.30;69.57;;;-2.10;99.90;;;;;;4941711;29;20031;-87
2022/01/26 07:38:50;;;;;;;641.88;56.97;;;-2.10;99.90;;;;;;4926835;29;20075;-86
2022/01/26 07:41:17;;;;;;;782.75;54.72;;;-2.00;99.90;;;;;;4942495;29;20030;-87
2022/01/26 07:43:46;;;;;;;892.65;64.63;;;-2.00;99.90;;;;;;4957977;29;20082;-87
2022/01/26 07:46:12;;;;;;;854.67;58.20;;;-2.10;99.90;;;;;;4926825;29;20031;-86
2022/01/26 07:48:38;;;;;;;920.53;77.55;;;-2.10;99.90;;;;;;4926873;29;20031;-86
2022/01/26 07:51:04;;;;;;;1128.32;79.65;;;-2.00;99.90;;;;;;4926221;29;20474;-88
2022/01/26 07:53:32;;;;;;;1280.80;115.13;;;-2.10;99.90;;;;;;4926592;29;20031;-87
2022/01/26 07:55:58;;;;;;;1330.03;109.82;;;-2.10;99.90;;;;;;4926183;29;20062;-86
2022/01/26 07:58:25;;;;;;;1003.55;105.75;;;-2.00;99.90;;;;;;4926614;29;20067;-86
2022/01/26 08:00:51;;;;;;;1123.03;95.60;;;-2.00;99.90;;;;;;4926538;29;20027;-87
2022/01/26 08:03:17;;;;;;;610.88;53.65;;;-2.00;99.90;;;;;;4926154;29;20031;-87
2022/01/26 08:05:44;;;;;;;771.00;63.50;;;-1.90;99.90;;;;;;4926000;29;20138;-87
2022/01/26 08:08:10;;;;;;;408.98;42.80;;;-1.90;99.90;;;;;;4926118;29;20031;-87
2022/01/26 08:10:36;;;;;;;523.60;53.35;;;-2.00;99.90;;;;;;4925937;29;20111;-85
2022/01/26 08:13:02;;;;;;;698.30;81.15;;;-2.00;99.90;;;;;;4943036;29;20115;-87
2022/01/26 08:15:28;;;;;;;414.95;67.43;;;-2.00;99.90;;;;;;4926251;29;20431;-87
2022/01/26 08:17:55;;;;;;;338.38;45.97;;;-2.00;99.90;;;;;;4925576;29;20031;-86
2022/01/26 08:20:22;;;;;;;160.07;29.50;;;-2.10;99.90;;;;;;4941797;29;20031;-87
2022/01/26 08:22:49;;;;;;;438.80;47.88;;;-2.10;99.90;;;;;;4925960;29;20440;-86
2022/01/26 08:25:15;;;;;;;212.48;31.00;;;-2.10;99.90;;;;;;4941877;29;20039;-86
2022/01/26 08:27:45;;;;;;;197.07;30.52;;;-2.10;99.90;;;;;;4973500;28;20111;-87
2022/01/26 08:30:15;;;;;;;255.57;35.10;;;-2.20;99.90;;;;;;4925640;29;20034;-87
2022/01/26 08:32:41;;;;;;;239.00;35.67;;;-2.20;99.90;;;;;;4957922;28;20447;-86
2022/01/26 08:35:08;;;;;;;197.52;34.47;;;-2.20;99.90;;;;;;4941685;29;20122;-86
2022/01/26 08:37:34;;;;;;;87.47;26.77;;;-2.20;99.90;;;;;;4925656;29;20394;-86
2022/01/26 08:40:00;;;;;;;193.40;32.17;;;-2.10;99.90;;;;;;4941511;29;20049;-86
2022/01/26 08:43:01;;;;;;;299.95;38.00;;;-2.10;99.90;;;;;;4957805;29;20027;-87
2022/01/26 08:45:27;;;;;;;213.85;30.77;;;-2.00;99.90;;;;;;4941505;29;20130;-87
2022/01/26 08:47:53;;;;;;;557.72;47.00;;;-2.00;99.90;;;;;;4941046;29;20087;-87
2022/01/26 08:50:19;;;;;;;419.90;47.80;;;-2.00;99.90;;;;;;4925358;29;20099;-87
2022/01/26 08:52:45;;;;;;;757.55;65.65;;;-1.90;99.90;;;;;;4957319;29;20036;-87
2022/01/26 08:55:11;;;;;;;354.05;38.85;;;-1.90;99.90;;;;;;4925388;29;20031;-86
2022/01/26 08:57:37;;;;;;;268.58;34.58;;;-1.90;99.90;;;;;;4940581;29;20047;-88
2022/01/26 09:00:08;;;;;;;236.23;34.90;;;-1.80;99.90;;;;;;4925659;29;20038;-86
2022/01/26 09:02:37;;;;;;;382.13;40.70;;;-1.70;99.90;;;;;;4941284;29;20473;-86
2022/01/26 09:05:04;;;;;;;257.00;32.97;;;-1.60;99.90;;;;;;4925060;29;20035;-87
2022/01/26 09:07:31;;;;;;;303.92;35.47;;;-1.60;99.90;;;;;;4958187;29;20444;-87
2022/01/26 09:09:59;;;;;;;157.13;29.10;;;-1.60;99.90;;;;;;4924907;29;20134;-87
2022/01/26 09:12:26;;;;;;;208.93;30.67;;;-1.50;99.90;;;;;;4956989;29;20031;-87
2022/01/26 09:14:53;;;;;;;366.05;38.50;;;-1.50;99.90;;;;;;4925271;29;20389;-87
2022/01/26 09:17:20;;;;;;;355.95;38.88;;;-1.50;99.90;;;;;;4924559;29;20118;-86
2022/01/26 09:19:47;;;;;;;178.82;33.92;;;-1.60;99.90;;;;;;4956178;29;20039;-88
2022/01/26 09:22:19;;;;;;;159.43;30.42;;;-1.70;99.90;;;;;;4940603;29;20505;-88
2022/01/26 09:24:45;;;;;;;;;;;-1.60;99.90;;;;;;4941619;29;20394;-87
2022/01/26 09:27:14;;;;;;;404.02;44.33;;;-1.50;99.90;;;;;;4957930;29;19914;-87
2022/01/26 09:29:41;;;;;;;473.65;47.33;;;-1.40;99.90;;;;;;4928416;29;20046;-88
2022/01/26 09:32:07;;;;;;;421.25;41.03;;;-1.40;99.90;;;;;;4941103;29;20035;-88
2022/01/26 09:34:37;;;;;;;400.50;39.85;;;-1.50;99.90;;;;;;4924709;29;20078;-86
2022/01/26 09:37:08;;;;;;;941.22;73.20;;;-1.60;99.90;;;;;;4941101;29;20035;-86
2022/01/26 09:39:34;;;;;;;412.50;38.42;;;-1.80;99.90;;;;;;4941376;29;20066;-89
2022/01/26 09:42:01;;;;;;;427.83;41.00;;;-1.70;99.90;;;;;;4941322;29;20031;-86
2022/01/26 09:44:30;;;;;;;672.95;57.10;;;-1.60;99.90;;;;;;4925285;29;20517;-86
2022/01/26 09:46:57;;;;;;;336.80;38.03;;;-1.50;99.90;;;;;;4941568;29;20470;-86
2022/01/26 09:49:29;;;;;;;334.02;41.85;;;-1.50;99.90;;;;;;4925054;29;20447;-86
2022/01/26 09:51:58;;;;;;;555.40;46.80;;;-1.40;99.90;;;;;;4925336;29;20544;-86
2022/01/26 09:54:30;;;;;;;185.70;29.30;;;-1.40;99.90;;;;;;4925037;29;20031;-88
2022/01/26 09:57:01;;;;;;;;;;;-1.50;99.90;;;;;;4925853;29;20121;-86
2022/01/26 09:59:26;;;;;;;515.58;44.13;;;-1.40;99.90;;;;;;4956225;28;20357;-86
2022/01/26 10:01:52;;;;;;;265.23;34.17;;;-1.50;99.90;;;;;;4940127;29;20066;-87
2022/01/26 10:04:40;;;;;;;389.75;40.78;;;-1.60;99.90;;;;;;4956106;29;20035;-86
2022/01/26 10:07:26;;;;;;;626.97;49.00;;;-1.50;99.90;;;;;;4924315;29;20050;-84
2022/01/26 10:10:31;;;;;;;560.78;51.72;;;-1.60;99.90;;;;;;4940271;29;20040;-86
2022/01/26 10:15:50;;;;;;;1092.22;86.18;;;-1.70;99.90;;;;;;4955543;29;20040;-86
2022/01/26 10:18:20;;;;;;;597.78;50.08;;;-1.80;99.90;;;;;;4924177;29;20031;-86
2022/01/26 10:20:56;;;;;;;431.25;46.20;;;-1.70;99.90;;;;;;4940070;29;20074;-85
2022/01/26 10:23:28;;;;;;;844.42;78.22;;;-1.70;99.90;;;;;;4924047;29;20402;-86
2022/01/26 10:26:07;;;;;;;397.77;47.05;;;-1.80;99.90;;;;;;4924251;29;20035;-86
2022/01/26 10:28:46;;;;;;;1153.22;89.05;;;-1.70;99.90;;;;;;4924164;29;20398;-86
2022/01/26 10:31:17;;;;;;;1162.85;93.57;;;-1.70;99.90;;;;;;4956119;29;20494;-86
2022/01/26 10:34:05;;;;;;;850.55;73.88;;;-1.70;99.90;;;;;;4955565;29;20125;-86
2022/01/26 10:36:54;;;;;;;1147.95;93.25;;;-1.80;99.90;;;;;;4956131;29;20490;-85
2022/01/26 10:39:28;;;;;;;1139.97;87.95;;;-1.80;99.90;;;;;;4924337;29;20070;-86
2022/01/26 10:41:58;;;;;;;918.75;83.50;;;-1.80;99.90;;;;;;4924911;29;20074;-86
2022/01/26 10:44:45;;;;;;;1113.82;93.30;;;-1.70;99.90;;;;;;4956856;29;20039;-88
2022/01/26 10:47:11;;;;;;;941.83;84.85;;;-1.70;99.90;;;;;;4939937;29;20562;-87
2022/01/26 10:54:49;;;;;;;1058.38;86.82;;;-1.70;99.90;;;;;;4973538;28;20039;-86
2022/01/26 10:57:16;;;;;;;749.78;75.40;;;-1.70;99.90;;;;;;4940508;29;20042;-87
2022/01/26 10:59:48;;;;;;;523.65;54.60;;;-1.70;99.90;;;;;;4924284;29;20039;-86
2022/01/26 11:02:26;;;;;;;914.67;76.05;;;-1.60;99.90;;;;;;4940316;29;20039;-87
2022/01/26 11:04:52;;;;;;;620.08;59.50;;;-1.70;99.90;;;;;;4924188;29;20087;-88
2022/01/26 11:07:18;;;;;;;355.15;47.35;;;-1.70;99.90;;;;;;4924530;29;20043;-87
2022/01/26 11:09:47;;;;;;;1224.65;99.22;;;-1.60;99.90;;;;;;4924505;29;20355;-87
2022/01/26 11:12:15;;;;;;;1032.25;86.97;;;-1.60;99.90;;;;;;4942497;29;20034;-87
2022/01/26 11:14:47;;;;;;;1178.95;100.55;;;-1.70;99.90;;;;;;4927927;29;20023;-88
2022/01/26 11:17:33;;;;;;;824.60;73.15;;;-1.70;99.90;;;;;;4959885;28;20035;-88
2022/01/26 11:20:01;;;;;;;115.72;33.00;;;-1.80;99.90;;;;;;4960345;29;20503;-88
2022/01/26 11:22:30;;;;;;;512.60;56.83;;;-1.70;99.90;;;;;;4927623;29;20035;-88
2022/01/26 11:25:09;;;;;;;839.88;72.95;;;-1.60;99.90;;;;;;4927558;29;20042;-88
2022/01/26 11:27:37;;;;;;;1089.47;90.97;;;-1.50;99.90;;;;;;4928458;29;20031;-88
2022/01/26 11:30:15;;;;;;;1300.60;123.43;;;-1.60;99.90;;;;;;4927579;29;20038;-88
2022/01/26 11:32:59;;;;;;;1094.88;102.28;;;-1.60;99.90;;;;;;4928196;29;20095;-88
2022/01/26 11:35:36;;;;;;;991.15;84.85;;;-1.60;99.90;;;;;;4961995;29;20023;-88
2022/01/26 11:39:03;;;;;;;1250.97;102.70;;;-1.60;99.90;;;;;;4950199;29;20909;-86
2022/01/26 11:47:09;;;;;;;806.63;74.38;;;-1.80;99.90;;;;;;4960063;29;20020;-88
2022/01/26 11:49:37;;;;;;;646.92;60.55;;;-1.80;99.90;;;;;;4960261;28;20031;-87
2022/01/26 11:52:05;;;;;;;1066.07;93.05;;;-1.80;99.90;;;;;;4928437;29;20062;-87
2022/01/26 11:54:51;;;;;;;1189.05;104.22;;;-1.80;99.90;;;;;;4928416;29;20023;-86
2022/01/26 11:57:18;;;;;;;1239.57;109.80;;;-1.80;99.90;;;;;;4928087;29;20098;-87
2022/01/26 11:59:57;;;;;;;588.40;56.08;;;-1.90;99.90;;;;;;4945011;29;20058;-88
2022/01/26 12:02:39;;;;;;;802.60;72.60;;;-1.90;99.90;;;;;;4928466;29;20442;-88
2022/01/26 12:05:09;;;;;;;437.73;52.47;;;-1.90;99.90;;;;;;4926905;29;20042;-88
2022/01/26 12:07:59;;;;;;;845.72;74.93;;;-1.90;99.90;;;;;;4944680;29;20041;-88
2022/01/26 12:10:32;;;;;;;739.97;64.60;;;-1.90;99.90;;;;;;4928956;29;20497;-87
2022/01/26 12:13:08;;;;;;;120.88;29.70;;;-1.90;99.90;;;;;;4942268;29;20087;-88
2022/01/26 12:15:50;;;;;;;201.68;32.67;;;-1.90;99.90;;;;;;4943760;29;20031;-88
2022/01/26 12:32:34;;;;;;;395.17;47.67;;;-1.80;99.90;;;;;;4960236;29;20028;-89
2022/01/26 12:35:20;;;;;;;215.82;34.00;;;-1.90;99.90;;;;;;4942999;29;20032;-87
2022/01/26 12:43:50;;;;;;;862.72;82.10;;;-1.90;99.90;;;;;;4938945;29;20106;-88
2022/01/26 12:46:27;;;;;;;150.10;33.90;;;-1.90;99.90;;;;;;4928102;29;20015;-88
2022/01/26 12:48:56;;;;;;;264.38;40.05;;;-2.00;99.90;;;;;;4928104;29;20042;-91
2022/01/26 12:51:22;;;;;;;524.78;55.40;;;-2.00;99.90;;;;;;4943666;29;20047;-89
2022/01/26 12:53:54;;;;;;;601.65;62.70;;;-2.00;99.90;;;;;;4928205;29;20038;-89
2022/01/26 12:56:19;;;;;;;;;;;-2.00;99.90;;;;;;4959046;29;20027;-88
2022/01/26 12:58:45;;;;;;;128.98;40.00;;;-2.00;99.90;;;;;;4973846;28;19910;-89
2022/01/26 13:01:19;;;;;;;223.38;40.40;;;-2.00;99.90;;;;;;4925986;29;20073;-88
2022/01/26 13:03:48;;;;;;;136.02;41.17;;;-2.00;99.90;;;;;;4925964;29;20089;-88
2022/01/26 13:06:25;;;;;;;203.95;41.33;;;-2.00;99.90;;;;;;4926493;29;20039;-88
2022/01/26 13:08:53;;;;;;;219.63;42.05;;;-2.00;99.90;;;;;;4926131;29;20098;-88
2022/01/26 13:11:31;;;;;;;339.05;48.67;;;-1.90;99.90;;;;;;4957815;29;20066;-87
2022/01/26 13:14:23;;;;;;;335.38;50.90;;;-2.10;99.90;;;;;;4942315;29;20622;-88
2022/01/26 13:16:56;;;;;;;172.60;44.30;;;-2.10;99.90;;;;;;4942162;29;20027;-89
2022/01/26 13:24:55;;;;;;;230.40;47.70;;;-2.20;99.90;;;;;;4957334;28;20390;-88
2022/01/26 13:30:29;;;;;;;149.63;39.88;;;-2.10;99.90;;;;;;4959237;29;20039;-87
2022/01/26 13:54:40;;;;;;;106.25;37.10;;;-2.10;99.90;;;;;;4977513;28;20426;-93
2022/01/26 13:57:15;;;;;;;;;;;-2.10;99.90;;;;;;4942454;29;20035;-91
2022/01/26 13:59:46;;;;;;;85.05;32.40;;;-2.10;99.90;;;;;;4976254;28;19917;-89
2022/01/26 14:02:12;;;;;;;90.55;32.15;;;-2.10;99.90;;;;;;4927330;29;20023;-87
2022/01/26 14:04:39;;;;;;;83.53;31.50;;;-2.10;99.90;;;;;;4928916;29;20031;-89
2022/01/26 14:07:06;;;;;;;78.30;28.10;;;-2.10;99.90;;;;;;4926678;29;20035;-90
2022/01/26 14:09:32;;;;;;;64.60;26.60;;;-2.10;99.90;;;;;;4926337;29;20031;-89
2022/01/26 14:11:59;;;;;;;71.28;27.85;;;-2.10;99.90;;;;;;4941730;29;20027;-89
2022/01/26 14:14:32;;;;;;;69.95;26.45;;;-2.00;99.90;;;;;;4926876;29;20031;-89
2022/01/26 14:17:01;;;;;;;72.85;28.55;;;-2.00;99.90;;;;;;4926769;29;20028;-90
2022/01/26 14:22:30;;;;;;;63.03;24.30;;;-2.00;99.90;;;;;;4974473;28;20139;-90
2022/01/26 14:27:19;;;;;;;67.93;27.83;;;-2.00;99.90;;;;;;4974901;28;20035;-89
2022/01/26 14:30:14;;;;;;;57.17;23.55;;;-1.90;99.90;;;;;;4926786;29;20031;-89
2022/01/26 14:33:04;;;;;;;49.38;20.73;;;-1.90;99.90;;;;;;4926784;29;20042;-89
2022/01/26 14:50:55;;;;;;;57.38;22.98;;;-2.00;99.90;;;;;;4958472;29;20031;-91
2022/01/26 15:29:56;;;;;;;51.40;19.55;;;-2.00;99.90;;;;;;4978567;28;20058;-91
2022/01/26 15:33:32;;;;;;;55.53;20.00;;;-2.10;99.90;;;;;;4977644;28;20118;-89
2022/01/26 15:44:17;;;;;;;61.13;22.33;;;-2.10;99.90;;;;;;4978159;28;20378;-90
2022/01/26 15:49:45;;;;;;;54.20;18.73;;;-2.10;99.90;;;;;;4961380;29;20439;-90
2022/01/26 16:08:25;;;;;;;73.72;23.10;;;-2.20;99.90;;;;;;4979806;28;20035;-91
2022/01/26 16:16:34;;;;;;;75.20;23.30;;;-2.10;99.90;;;;;;4961717;29;20107;-91
2022/01/26 16:16:37;;;;;;;79.97;22.75;;;-2.20;99.90;;;;;;4943532;29;20070;-89
2022/01/26 16:21:44;;;;;;;75.35;24.65;;;-2.20;99.90;;;;;;4977626;28;20489;-89
2022/01/26 16:38:01;;;;;;;82.30;25.25;;;-2.10;99.90;;;;;;4977241;28;20067;-89
2022/01/26 18:26:30;;;;;;;477.83;151.68;;;-2.00;99.90;;;;;;4961839;29;20099;-92
2022/01/26 18:32:07;;;;;;;136.02;41.22;;;-2.00;99.90;;;;;;4959953;29;20043;-91
2022/01/26 18:50:46;;;;;;;141.95;38.45;;;-2.00;99.90;;;;;;4962189;29;20482;-91
2022/01/26 18:53:13;;;;;;;148.60;40.28;;;-2.10;99.90;;;;;;4932323;29;20027;-88
2022/01/26 18:55:39;;;;;;;132.43;37.80;;;-2.00;99.90;;;;;;4933429;29;20024;-91
2022/01/26 18:58:05;;;;;;;143.43;43.08;;;-2.00;99.90;;;;;;4933108;29;20031;-90
2022/01/26 19:00:31;;;;;;;127.63;36.95;;;-2.10;99.90;;;;;;4931248;29;20047;-89
2022/01/26 19:03:00;;;;;;;132.40;37.40;;;-2.00;99.90;;;;;;4947840;29;20035;-90
2022/01/26 19:05:27;;;;;;;136.95;41.05;;;-2.00;99.90;;;;;;4965952;29;20049;-89
2022/01/26 19:07:55;;;;;;;157.55;42.67;;;-2.00;99.90;;;;;;4946280;29;20028;-89
2022/01/26 19:10:21;;;;;;;144.68;42.25;;;-2.00;99.90;;;;;;4931200;29;20039;-90
2022/01/26 19:12:49;;;;;;;114.25;34.42;;;-2.00;99.90;;;;;;4931105;29;20119;-89
2022/01/26 19:15:18;;;;;;;135.10;37.13;;;-2.00;99.90;;;;;;4946846;29;20035;-92